createdAt,value
2019-03-21T05:04:09.378Z,103026.67
2019-03-21T05:07:37.275Z,103042.86
2019-03-21T05:11:06.154Z,103039.43
2019-03-21T05:14:34.028Z,103039.56
2019-03-21T05:18:02.597Z,103043.88
2019-03-21T05:21:30.480Z,103038.45
2019-03-21T05:24:58.355Z,103031.84
2019-03-21T05:28:26.249Z,103024.32
2019-03-21T05:31:54.274Z,103033.5
2019-03-21T05:35:23.230Z,103034.34
2019-03-21T05:38:51.335Z,103036.78
2019-03-21T05:42:19.212Z,103042.56
2019-03-21T05:45:47.094Z,103045.14
2019-03-21T05:49:14.975Z,103047.25
2019-03-21T05:52:42.860Z,103052.1
2019-03-21T05:56:10.747Z,103041.62
2019-03-21T05:59:38.834Z,103039.31
2019-03-21T06:03:06.739Z,103054.65
2019-03-21T06:06:34.619Z,103048.32
2019-03-21T06:10:02.482Z,103056.07
2019-03-21T06:13:30.379Z,103051.35
2019-03-21T06:16:58.264Z,103051.5
2019-03-21T06:20:26.471Z,103046.76
2019-03-21T06:23:54.339Z,103050.28
2019-03-21T06:27:22.207Z,103055.42
2019-03-21T06:30:51.559Z,103070.58
2019-03-21T06:34:20.569Z,103065.98
2019-03-21T06:37:49.444Z,103059.45
2019-03-21T06:41:17.668Z,103057.46
2019-03-21T06:44:45.547Z,103061.28
2019-03-21T06:48:13.435Z,103056.03
2019-03-21T06:51:41.340Z,103055.53
2019-03-21T06:55:09.241Z,103071.57
2019-03-21T06:58:37.142Z,103068.5
2019-03-21T07:02:05.478Z,103060.54
2019-03-21T07:05:33.258Z,103063.7
2019-03-21T07:09:01.154Z,103062.84
2019-03-21T07:12:29.108Z,103074.59
2019-03-21T07:15:56.984Z,103066.96
2019-03-21T07:19:24.874Z,103073.33
2019-03-21T07:22:53.773Z,103077.18
2019-03-21T07:26:21.974Z,103076.84
2019-03-21T07:29:50.117Z,103080.42
2019-03-21T07:33:18.101Z,103094.94
2019-03-21T07:36:46.004Z,103085.71
2019-03-21T07:40:13.898Z,103092.17
2019-03-21T07:43:41.775Z,103110.96
2019-03-21T07:47:13.278Z,103099.06
2019-03-21T07:50:41.230Z,103092.71
2019-03-21T07:54:09.205Z,103095.67
2019-03-21T07:57:37.150Z,103083.57
2019-03-21T08:01:05.057Z,103083.18
2019-03-21T08:04:32.947Z,103086.53
2019-03-21T08:08:02.170Z,103096.29
2019-03-21T08:11:30.774Z,103100.18
2019-03-21T08:14:58.658Z,103101.43
2019-03-21T08:18:26.545Z,103104.82
2019-03-21T08:21:54.431Z,103110.59
2019-03-21T08:25:23.302Z,103104.48
2019-03-21T08:28:52.158Z,103097.79
2019-03-21T08:32:20.239Z,103107.81
2019-03-21T08:35:48.157Z,103104.6
2019-03-21T08:39:16.041Z,103105.42
2019-03-21T08:42:43.943Z,103100.57
2019-03-21T08:46:11.856Z,103107.46
2019-03-21T08:49:40.419Z,103113.98
2019-03-21T08:53:08.317Z,103111.79
2019-03-21T08:56:36.198Z,103116.45
2019-03-21T09:00:04.068Z,103114.1
2019-03-21T09:03:32.967Z,103099.92
2019-03-21T09:07:01.847Z,103115.54
2019-03-21T09:10:30.398Z,103100.52
2019-03-21T09:14:00.272Z,103105.53
2019-03-21T09:17:28.265Z,103107.39
2019-03-21T09:20:56.129Z,103104.18
2019-03-21T09:24:24.018Z,103104.87
2019-03-21T09:28:02.105Z,103098.57
2019-03-21T09:31:27.075Z,103110.48
2019-03-21T09:34:54.981Z,103108.87
2019-03-21T09:38:22.898Z,103104.37
2019-03-21T09:41:50.835Z,103104.51
2019-03-21T09:45:18.751Z,103115.45
2019-03-21T09:48:46.870Z,103116.92
2019-03-21T09:52:14.750Z,103100.93
2019-03-21T09:55:42.643Z,103102.55
2019-03-21T09:59:10.543Z,103100.94
2019-03-21T10:02:38.535Z,103101.59
2019-03-21T10:06:06.446Z,103106.95
2019-03-21T10:09:34.341Z,103107.95
2019-03-21T10:13:03.603Z,103102.59
2019-03-21T10:16:31.491Z,103104.51
2019-03-21T10:19:59.378Z,103110.85
2019-03-21T10:23:27.324Z,103112.2
2019-03-21T10:26:55.755Z,103113.14
2019-03-21T10:30:24.647Z,103102.73
2019-03-21T10:33:53.342Z,103112.89
2019-03-21T10:37:21.225Z,103111.62
2019-03-21T10:40:49.120Z,103107.26
2019-03-21T10:44:17.001Z,103112.82
2019-03-21T10:47:44.935Z,103118.26
2019-03-21T10:51:12.899Z,103108
2019-03-21T10:54:41.592Z,103114.28
2019-03-21T10:58:09.483Z,103102.41
2019-03-21T11:01:37.345Z,103109.09
2019-03-21T11:05:05.231Z,103106.36
2019-03-21T11:08:33.111Z,103109.62
2019-03-21T11:12:01.048Z,103105.89
2019-03-21T11:15:30.575Z,103094.07
2019-03-21T11:18:58.457Z,103101.31
2019-03-21T11:22:26.329Z,103098.17
2019-03-21T11:25:54.236Z,103106.1
2019-03-21T11:29:22.198Z,103096.3
2019-03-21T11:32:50.102Z,103088.83
2019-03-21T11:36:19.270Z,103082.86
2019-03-21T11:39:47.154Z,103084.31
2019-03-21T11:43:15.044Z,103083.28
2019-03-21T11:46:42.926Z,103066.92
2019-03-21T11:50:11.908Z,103065.46
2019-03-21T11:53:39.779Z,103068.26
2019-03-21T11:57:08.006Z,103063.67
2019-03-21T12:00:43.612Z,103065.07
2019-03-21T12:04:09.738Z,103044.85
2019-03-21T12:07:37.631Z,103052.92
2019-03-21T12:11:05.495Z,103052.28
2019-03-21T12:14:33.393Z,103051.26
2019-03-21T12:18:01.449Z,103044.7
2019-03-21T12:21:29.321Z,103037.15
2019-03-21T12:24:58.205Z,103042.28
2019-03-21T12:28:26.096Z,103046.83
2019-03-21T12:31:54.058Z,103051.21
2019-03-21T12:35:22.015Z,103052.92
2019-03-21T12:38:51.148Z,103051.1
2019-03-21T12:42:19.011Z,103045.84
2019-03-21T12:45:46.901Z,103051.25
2019-03-21T12:49:14.799Z,103049.66
2019-03-21T12:52:43.667Z,103054.52
2019-03-21T12:56:11.583Z,103057.57
2019-03-21T12:59:39.943Z,103058.71
2019-03-21T13:03:07.830Z,103063.17
2019-03-21T13:06:35.719Z,103061.15
2019-03-21T13:10:03.664Z,103072.53
2019-03-21T13:13:31.560Z,103067.85
2019-03-21T13:16:59.426Z,103074.06
2019-03-21T13:20:27.596Z,103080.51
2019-03-21T13:23:55.493Z,103077.85
2019-03-21T13:27:23.374Z,103084
2019-03-21T13:30:52.223Z,103092.94
2019-03-21T13:34:20.128Z,103080.51
2019-03-21T13:37:48.002Z,103073.6
2019-03-21T13:41:17.128Z,103071.34
2019-03-21T13:44:45.022Z,103063.56
2019-03-21T13:48:12.903Z,103056.01
2019-03-21T13:51:40.777Z,103076.51
2019-03-21T13:55:09.661Z,103061.79
2019-03-21T13:58:37.547Z,103057.04
2019-03-21T14:02:06.173Z,103053.5
2019-03-21T14:05:35.172Z,103060.23
2019-03-21T14:09:02.962Z,103055.53
2019-03-21T14:12:32.078Z,103065.21
2019-03-21T14:16:01.945Z,103068.07
2019-03-21T14:19:31.491Z,103059.82
2019-03-21T14:23:01.074Z,103071.6
2019-03-21T14:26:30.938Z,103100.57
2019-03-21T14:30:02.069Z,103075.82
2019-03-21T14:33:30.024Z,103080.51
2019-03-21T14:36:57.934Z,103089.5
2019-03-21T14:40:26.190Z,103092.59
2019-03-21T14:43:54.032Z,103086.93
2019-03-21T14:47:21.903Z,103078.18
2019-03-21T14:50:52.789Z,103087.46
2019-03-21T14:54:20.707Z,103075.01
2019-03-21T14:57:48.567Z,103064.43
2019-03-21T15:01:18.121Z,103070.35
2019-03-21T15:04:46.021Z,103066.45
2019-03-21T15:08:14.055Z,103081.35
2019-03-21T15:11:42.123Z,103083.59
2019-03-21T15:15:10.035Z,103071.15
2019-03-21T15:18:37.908Z,103066.14
2019-03-21T15:22:05.943Z,103078.37
2019-03-21T15:25:33.897Z,103063.98
2019-03-21T15:29:01.726Z,103057.87
2019-03-21T15:32:29.722Z,103047.84
2019-03-21T15:35:57.583Z,103061.26
2019-03-21T15:39:25.523Z,103053.31
2019-03-21T15:42:53.399Z,103043.53
2019-03-21T15:46:22.288Z,103038.51
2019-03-21T15:49:50.223Z,103045.19
2019-03-21T15:53:18.148Z,103058.82
2019-03-21T15:56:46.120Z,103043.19
2019-03-21T16:00:14.087Z,103043.87
2019-03-21T16:03:42.095Z,103041.71
2019-03-21T16:07:10.138Z,103046.71
2019-03-21T16:10:38.030Z,103040.58
2019-03-21T16:14:05.924Z,103033.76
2019-03-21T16:17:34.806Z,103013.99
2019-03-21T16:21:02.687Z,103030.32
2019-03-21T16:24:31.544Z,103023.85
2019-03-21T16:27:59.765Z,103026.42
2019-03-21T16:31:27.766Z,103021.25
2019-03-21T16:34:55.653Z,103032.73
2019-03-21T16:38:24.360Z,103040.26
2019-03-21T16:41:52.245Z,103037.25
2019-03-21T16:45:21.490Z,103041.43
2019-03-21T16:48:49.232Z,103047.84
2019-03-21T16:52:17.097Z,103045.82
2019-03-21T16:55:45.002Z,103054.54
2019-03-21T16:59:12.874Z,103044.23
2019-03-21T17:02:40.868Z,103045.57
2019-03-21T17:06:08.763Z,103048.51
2019-03-21T17:09:36.912Z,103055.34
2019-03-21T17:13:07.406Z,103063.79
2019-03-21T17:16:34.694Z,103061.84
2019-03-21T17:20:04.621Z,103091.19
2019-03-21T17:23:33.452Z,103059.83
2019-03-21T17:27:01.386Z,103067.07
2019-03-21T17:30:31.336Z,103061.5
2019-03-21T17:33:59.266Z,103065.48
2019-03-21T17:37:28.181Z,103078.03
2019-03-21T17:40:56.084Z,103082.32
2019-03-21T17:44:23.986Z,103084.53
2019-03-21T17:47:51.993Z,103077.45
2019-03-21T17:51:20.094Z,103085.58
2019-03-21T17:54:47.972Z,103097.32
2019-03-21T17:58:15.885Z,103093.64
2019-03-21T18:01:43.767Z,103099.89
2019-03-21T18:05:11.729Z,103092.12
2019-03-21T18:08:39.597Z,103099.65
2019-03-21T18:12:08.221Z,103114.29
2019-03-21T18:15:36.173Z,103100.51
2019-03-21T18:19:04.045Z,103100.25
2019-03-21T18:22:31.969Z,103105.64
2019-03-21T18:25:59.903Z,103112.92
2019-03-21T18:29:27.784Z,103122.87
2019-03-21T18:32:55.740Z,103112.65
2019-03-21T18:36:23.697Z,103117.71
2019-03-21T18:39:51.535Z,103122.43
2019-03-21T18:43:19.448Z,103114.03
2019-03-21T18:46:47.350Z,103117.28
2019-03-21T18:50:16.215Z,103122.98
2019-03-21T18:53:44.122Z,103135.98
2019-03-21T18:57:13.252Z,103135.81
2019-03-21T19:00:41.162Z,103153.2
2019-03-21T19:04:09.184Z,103145.75
2019-03-21T19:07:37.103Z,103142.52
2019-03-21T19:11:04.997Z,103150.98
2019-03-21T19:14:32.870Z,103155.06
2019-03-21T19:18:01.082Z,103160.57
2019-03-21T19:21:28.981Z,103159.45
2019-03-21T19:24:56.848Z,103158.97
2019-03-21T19:28:24.761Z,103158.67
2019-03-21T19:31:52.821Z,103160.59
2019-03-21T19:35:27.777Z,103161.78
2019-03-21T19:38:55.643Z,103167.85
2019-03-21T19:42:23.529Z,103168.71
2019-03-21T19:45:51.959Z,103150.25
2019-03-21T19:49:24.106Z,103153.63
2019-03-21T19:52:59.969Z,103159.98
2019-03-21T19:56:34.518Z,103160.17
2019-03-21T20:00:12.330Z,103163.42
2019-03-21T20:05:01.512Z,103147.73
2019-03-21T20:08:29.444Z,103139.65
2019-03-21T20:11:57.327Z,103133.7
2019-03-21T20:15:26.018Z,103138.93
2019-03-21T20:18:54.636Z,103138.62
2019-03-21T20:22:23.200Z,103142.88
2019-03-21T20:25:51.214Z,103134.34
2019-03-21T20:29:27.749Z,103118
2019-03-21T20:33:04.531Z,103117.85
2019-03-21T20:36:37.426Z,103120.82
2019-03-21T20:40:10.795Z,103120.98
2019-03-21T20:43:38.929Z,103121.17
2019-03-21T20:47:07.970Z,103110.51
2019-03-21T20:50:35.950Z,103121.03
2019-03-21T20:54:03.835Z,103135.14
2019-03-21T20:57:32.465Z,103115.71
2019-03-21T21:01:00.444Z,103118.84
2019-03-21T21:04:28.337Z,103122.06
2019-03-21T21:07:56.291Z,103131.81
2019-03-21T21:11:24.190Z,103145.42
2019-03-21T21:14:52.112Z,103139.43
2019-03-21T21:18:20.010Z,103141.71
2019-03-21T21:21:47.908Z,103139.93
2019-03-21T21:25:15.865Z,103134.92
2019-03-21T21:28:43.798Z,103140.28
2019-03-21T21:32:11.876Z,103141.1
2019-03-21T21:35:39.767Z,103149.03
2019-03-21T21:39:08.667Z,103146.43
2019-03-21T21:42:36.575Z,103135.11
2019-03-21T21:46:04.462Z,103141.62
2019-03-21T21:49:32.358Z,103142.75
2019-03-21T21:53:00.302Z,103147.44
2019-03-21T21:56:28.178Z,103149.21
2019-03-21T21:59:56.975Z,103148.57
2019-03-21T22:03:25.864Z,103138.89
2019-03-21T22:06:53.745Z,103143.1
2019-03-21T22:10:21.600Z,103153.78
2019-03-21T22:13:51.077Z,103151.04
2019-03-21T22:17:18.952Z,103158.62
2019-03-21T22:20:46.826Z,103166.07
2019-03-21T22:24:14.703Z,103174.2
2019-03-21T22:27:42.592Z,103170.28
2019-03-21T22:31:10.520Z,103152.69
2019-03-21T22:34:39.410Z,103159.3
2019-03-21T22:38:07.456Z,103166.25
2019-03-21T22:41:35.333Z,103179.2
2019-03-21T22:45:03.222Z,103182.92
2019-03-21T22:48:31.149Z,103190.67
2019-03-21T22:51:59.047Z,103179.34
2019-03-21T22:55:26.962Z,103172.4
2019-03-21T22:58:54.840Z,103172.27
